sensor_id;sensor_type;location;lat;lon;timestamp;temperature;humidity
8711;DHT22;4392;47.400;8.062;2022-12-13T00:01:27;0.80;81.60
8711;DHT22;4392;47.400;8.062;2022-12-13T00:03:54;0.80;82.40
8711;DHT22;4392;47.400;8.062;2022-12-13T00:06:20;0.80;82.70
8711;DHT22;4392;47.400;8.062;2022-12-13T00:08:46;0.80;83.20
8711;DHT22;4392;47.400;8.062;2022-12-13T00:11:13;0.80;82.70
8711;DHT22;4392;47.400;8.062;2022-12-13T00:13:40;0.80;82.60
8711;DHT22;4392;47.400;8.062;2022-12-13T00:16:12;0.80;82.10
8711;DHT22;4392;47.400;8.062;2022-12-13T00:18:38;0.70;82.00
8711;DHT22;4392;47.400;8.062;2022-12-13T00:21:25;0.60;82.00
8711;DHT22;4392;47.400;8.062;2022-12-13T00:23:51;0.70;82.60
8711;DHT22;4392;47.400;8.062;2022-12-13T00:26:19;0.70;82.40
8711;DHT22;4392;47.400;8.062;2022-12-13T00:28:46;0.70;82.40
8711;DHT22;4392;47.400;8.062;2022-12-13T00:31:14;0.60;82.90
8711;DHT22;4392;47.400;8.062;2022-12-13T00:33:40;0.70;83.20
8711;DHT22;4392;47.400;8.062;2022-12-13T00:36:07;0.70;83.20
8711;DHT22;4392;47.400;8.062;2022-12-13T00:38:33;0.70;83.40
8711;DHT22;4392;47.400;8.062;2022-12-13T00:41:18;0.70;83.50
8711;DHT22;4392;47.400;8.062;2022-12-13T00:43:44;0.80;83.90
8711;DHT22;4392;47.400;8.062;2022-12-13T00:46:17;0.80;83.90
8711;DHT22;4392;47.400;8.062;2022-12-13T00:48:47;0.80;83.70
8711;DHT22;4392;47.400;8.062;2022-12-13T00:51:13;0.90;83.60
8711;DHT22;4392;47.400;8.062;2022-12-13T00:53:39;0.90;83.80
8711;DHT22;4392;47.400;8.062;2022-12-13T00:56:14;0.90;83.80
8711;DHT22;4392;47.400;8.062;2022-12-13T00:58:41;0.80;83.10
8711;DHT22;4392;47.400;8.062;2022-12-13T01:01:09;0.70;82.60
8711;DHT22;4392;47.400;8.062;2022-12-13T01:03:56;0.80;82.90
8711;DHT22;4392;47.400;8.062;2022-12-13T01:06:30;0.70;83.10
8711;DHT22;4392;47.400;8.062;2022-12-13T01:08:59;0.70;82.90
8711;DHT22;4392;47.400;8.062;2022-12-13T01:11:25;0.70;82.50
8711;DHT22;4392;47.400;8.062;2022-12-13T01:13:53;0.70;82.40
8711;DHT22;4392;47.400;8.062;2022-12-13T01:16:19;0.80;82.10
8711;DHT22;4392;47.400;8.062;2022-12-13T01:18:45;0.80;81.40
8711;DHT22;4392;47.400;8.062;2022-12-13T01:21:18;0.70;81.90
8711;DHT22;4392;47.400;8.062;2022-12-13T01:23:46;0.80;81.60
8711;DHT22;4392;47.400;8.062;2022-12-13T01:26:14;0.70;80.80
8711;DHT22;4392;47.400;8.062;2022-12-13T01:28:41;0.60;80.30
8711;DHT22;4392;47.400;8.062;2022-12-13T01:31:09;0.70;80.70
8711;DHT22;4392;47.400;8.062;2022-12-13T01:33:36;0.70;80.80
8711;DHT22;4392;47.400;8.062;2022-12-13T01:36:04;0.70;80.80
8711;DHT22;4392;47.400;8.062;2022-12-13T01:38:31;0.70;81.00
8711;DHT22;4392;47.400;8.062;2022-12-13T01:40:57;0.60;80.40
8711;DHT22;4392;47.400;8.062;2022-12-13T01:46:12;0.50;80.50
8711;DHT22;4392;47.400;8.062;2022-12-13T01:51:21;0.50;80.00
8711;DHT22;4392;47.400;8.062;2022-12-13T01:53:49;0.50;79.80
8711;DHT22;4392;47.400;8.062;2022-12-13T01:59:06;0.40;80.10
8711;DHT22;4392;47.400;8.062;2022-12-13T02:01:32;0.40;79.50
8711;DHT22;4392;47.400;8.062;2022-12-13T02:04:01;0.50;79.70
8711;DHT22;4392;47.400;8.062;2022-12-13T02:06:34;0.40;79.60
8711;DHT22;4392;47.400;8.062;2022-12-13T02:09:01;0.30;79.70
8711;DHT22;4392;47.400;8.062;2022-12-13T02:11:28;0.50;79.60
8711;DHT22;4392;47.400;8.062;2022-12-13T02:13:54;0.50;79.10
8711;DHT22;4392;47.400;8.062;2022-12-13T02:16:26;0.40;78.50
8711;DHT22;4392;47.400;8.062;2022-12-13T02:19:19;0.40;78.60
8711;DHT22;4392;47.400;8.062;2022-12-13T02:22:11;0.30;78.80
8711;DHT22;4392;47.400;8.062;2022-12-13T02:24:55;0.30;79.30
8711;DHT22;4392;47.400;8.062;2022-12-13T02:40:59;0.50;78.30
8711;DHT22;4392;47.400;8.062;2022-12-13T02:43:38;0.50;77.70
8711;DHT22;4392;47.400;8.062;2022-12-13T02:46:06;0.50;77.70
8711;DHT22;4392;47.400;8.062;2022-12-13T02:48:36;0.60;78.10
8711;DHT22;4392;47.400;8.062;2022-12-13T02:51:04;0.90;90.90
8711;DHT22;4392;47.400;8.062;2022-12-13T02:53:32;1.40;82.50
8711;DHT22;4392;47.400;8.062;2022-12-13T02:55:59;1.00;78.90
8711;DHT22;4392;47.400;8.062;2022-12-13T02:58:29;0.90;79.30
8711;DHT22;4392;47.400;8.062;2022-12-13T03:03:53;0.60;78.80
8711;DHT22;4392;47.400;8.062;2022-12-13T03:09:54;0.50;78.80
8711;DHT22;4392;47.400;8.062;2022-12-13T03:12:40;0.50;78.00
8711;DHT22;4392;47.400;8.062;2022-12-13T03:18:21;0.50;78.40
8711;DHT22;4392;47.400;8.062;2022-12-13T03:20:52;0.50;77.90
8711;DHT22;4392;47.400;8.062;2022-12-13T03:23:20;0.40;78.00
8711;DHT22;4392;47.400;8.062;2022-12-13T03:25:49;0.40;77.60
8711;DHT22;4392;47.400;8.062;2022-12-13T03:28:16;0.30;77.10
8711;DHT22;4392;47.400;8.062;2022-12-13T03:30:42;0.30;76.90
8711;DHT22;4392;47.400;8.062;2022-12-13T03:33:08;0.30;77.30
8711;DHT22;4392;47.400;8.062;2022-12-13T03:35:39;0.40;77.50
8711;DHT22;4392;47.400;8.062;2022-12-13T03:38:07;0.40;77.70
8711;DHT22;4392;47.400;8.062;2022-12-13T03:40:33;0.40;77.70
8711;DHT22;4392;47.400;8.062;2022-12-13T03:43:00;0.30;76.90
8711;DHT22;4392;47.400;8.062;2022-12-13T03:45:27;0.20;77.00
8711;DHT22;4392;47.400;8.062;2022-12-13T03:47:52;0.10;78.00
8711;DHT22;4392;47.400;8.062;2022-12-13T03:50:18;0.10;77.40
8711;DHT22;4392;47.400;8.062;2022-12-13T03:52:44;0.00;76.80
8711;DHT22;4392;47.400;8.062;2022-12-13T03:55:12;0.10;77.20
8711;DHT22;4392;47.400;8.062;2022-12-13T03:57:39;0.10;77.40
8711;DHT22;4392;47.400;8.062;2022-12-13T04:00:05;0.10;77.80
8711;DHT22;4392;47.400;8.062;2022-12-13T04:02:31;0.10;77.00
8711;DHT22;4392;47.400;8.062;2022-12-13T04:04:57;0.10;76.70
8711;DHT22;4392;47.400;8.062;2022-12-13T04:07:22;0.00;76.80
8711;DHT22;4392;47.400;8.062;2022-12-13T04:09:48;0.10;77.10
8711;DHT22;4392;47.400;8.062;2022-12-13T04:12:14;0.30;77.60
8711;DHT22;4392;47.400;8.062;2022-12-13T04:14:58;0.30;76.70
8711;DHT22;4392;47.400;8.062;2022-12-13T04:17:24;0.30;76.90
8711;DHT22;4392;47.400;8.062;2022-12-13T04:19:50;0.20;77.20
8711;DHT22;4392;47.400;8.062;2022-12-13T04:22:16;0.20;77.10
8711;DHT22;4392;47.400;8.062;2022-12-13T04:24:42;0.20;76.50
8711;DHT22;4392;47.400;8.062;2022-12-13T04:27:07;0.00;76.10
8711;DHT22;4392;47.400;8.062;2022-12-13T04:29:33;0.30;80.90
8711;DHT22;4392;47.400;8.062;2022-12-13T04:31:59;0.50;77.70
8711;DHT22;4392;47.400;8.062;2022-12-13T04:34:25;0.50;76.80
8711;DHT22;4392;47.400;8.062;2022-12-13T04:36:51;0.30;75.80
8711;DHT22;4392;47.400;8.062;2022-12-13T04:39:19;0.30;76.50
8711;DHT22;4392;47.400;8.062;2022-12-13T04:41:46;0.40;76.70
8711;DHT22;4392;47.400;8.062;2022-12-13T04:44:12;0.30;76.20
8711;DHT22;4392;47.400;8.062;2022-12-13T04:46:38;0.30;76.30
8711;DHT22;4392;47.400;8.062;2022-12-13T04:49:03;0.30;76.40
8711;DHT22;4392;47.400;8.062;2022-12-13T04:51:29;0.30;76.20
8711;DHT22;4392;47.400;8.062;2022-12-13T04:53:55;0.50;76.70
8711;DHT22;4392;47.400;8.062;2022-12-13T04:56:21;0.50;78.90
8711;DHT22;4392;47.400;8.062;2022-12-13T04:58:47;0.70;78.20
8711;DHT22;4392;47.400;8.062;2022-12-13T05:01:13;0.70;77.30
8711;DHT22;4392;47.400;8.062;2022-12-13T05:03:38;0.70;76.70
8711;DHT22;4392;47.400;8.062;2022-12-13T05:06:09;0.60;76.10
8711;DHT22;4392;47.400;8.062;2022-12-13T05:08:36;0.60;76.10
8711;DHT22;4392;47.400;8.062;2022-12-13T05:11:03;0.50;75.50
8711;DHT22;4392;47.400;8.062;2022-12-13T05:13:29;0.40;75.50
8711;DHT22;4392;47.400;8.062;2022-12-13T05:16:00;0.30;75.40
8711;DHT22;4392;47.400;8.062;2022-12-13T05:18:26;0.30;75.50
8711;DHT22;4392;47.400;8.062;2022-12-13T05:20:53;0.20;75.40
8711;DHT22;4392;47.400;8.062;2022-12-13T05:23:20;0.20;75.10
8711;DHT22;4392;47.400;8.062;2022-12-13T05:25:46;0.20;75.20
8711;DHT22;4392;47.400;8.062;2022-12-13T05:28:12;0.20;75.70
8711;DHT22;4392;47.400;8.062;2022-12-13T05:30:41;0.20;75.80
8711;DHT22;4392;47.400;8.062;2022-12-13T05:33:10;0.20;75.50
8711;DHT22;4392;47.400;8.062;2022-12-13T05:35:36;0.20;75.60
8711;DHT22;4392;47.400;8.062;2022-12-13T05:38:04;0.20;75.90
8711;DHT22;4392;47.400;8.062;2022-12-13T05:40:39;0.20;75.70
8711;DHT22;4392;47.400;8.062;2022-12-13T05:43:05;0.10;76.00
8711;DHT22;4392;47.400;8.062;2022-12-13T05:45:31;0.20;76.10
8711;DHT22;4392;47.400;8.062;2022-12-13T05:47:58;0.20;75.80
8711;DHT22;4392;47.400;8.062;2022-12-13T05:50:24;0.20;76.00
8711;DHT22;4392;47.400;8.062;2022-12-13T05:52:50;0.20;75.80
8711;DHT22;4392;47.400;8.062;2022-12-13T05:55:16;0.20;75.80
8711;DHT22;4392;47.400;8.062;2022-12-13T05:57:42;0.30;76.30
8711;DHT22;4392;47.400;8.062;2022-12-13T06:00:09;0.20;76.30
8711;DHT22;4392;47.400;8.062;2022-12-13T06:02:42;0.20;76.10
8711;DHT22;4392;47.400;8.062;2022-12-13T06:05:09;0.30;75.50
8711;DHT22;4392;47.400;8.062;2022-12-13T06:07:36;0.30;75.50
8711;DHT22;4392;47.400;8.062;2022-12-13T06:10:05;0.20;75.40
8711;DHT22;4392;47.400;8.062;2022-12-13T06:12:35;0.00;76.00
8711;DHT22;4392;47.400;8.062;2022-12-13T06:15:01;-0.10;76.20
8711;DHT22;4392;47.400;8.062;2022-12-13T06:17:32;-0.10;76.50
8711;DHT22;4392;47.400;8.062;2022-12-13T06:19:58;-0.10;76.20
8711;DHT22;4392;47.400;8.062;2022-12-13T06:22:24;-0.20;75.90
8711;DHT22;4392;47.400;8.062;2022-12-13T06:24:52;-0.20;75.50
8711;DHT22;4392;47.400;8.062;2022-12-13T06:27:18;-0.20;75.80
8711;DHT22;4392;47.400;8.062;2022-12-13T06:29:44;-0.20;76.10
8711;DHT22;4392;47.400;8.062;2022-12-13T06:32:10;-0.20;76.30
8711;DHT22;4392;47.400;8.062;2022-12-13T06:34:36;-0.20;76.20
8711;DHT22;4392;47.400;8.062;2022-12-13T06:37:06;-0.20;75.80
8711;DHT22;4392;47.400;8.062;2022-12-13T06:39:33;-0.20;75.90
8711;DHT22;4392;47.400;8.062;2022-12-13T06:42:00;-0.30;76.30
8711;DHT22;4392;47.400;8.062;2022-12-13T06:44:26;-0.30;76.00
8711;DHT22;4392;47.400;8.062;2022-12-13T06:46:53;-0.30;75.80
8711;DHT22;4392;47.400;8.062;2022-12-13T06:49:19;-0.30;76.20
8711;DHT22;4392;47.400;8.062;2022-12-13T06:51:45;-0.30;76.40
8711;DHT22;4392;47.400;8.062;2022-12-13T06:54:10;-0.40;76.10
8711;DHT22;4392;47.400;8.062;2022-12-13T06:56:36;-0.30;76.20
8711;DHT22;4392;47.400;8.062;2022-12-13T06:59:02;-0.40;76.40
8711;DHT22;4392;47.400;8.062;2022-12-13T07:01:28;-0.30;76.60
8711;DHT22;4392;47.400;8.062;2022-12-13T07:03:54;-0.30;76.60
8711;DHT22;4392;47.400;8.062;2022-12-13T07:06:22;-0.40;77.00
8711;DHT22;4392;47.400;8.062;2022-12-13T07:08:56;-0.30;77.40
8711;DHT22;4392;47.400;8.062;2022-12-13T07:11:25;-0.30;77.30
8711;DHT22;4392;47.400;8.062;2022-12-13T07:13:51;-0.20;77.90
8711;DHT22;4392;47.400;8.062;2022-12-13T07:16:17;-0.20;77.50
8711;DHT22;4392;47.400;8.062;2022-12-13T07:18:44;-0.20;77.30
8711;DHT22;4392;47.400;8.062;2022-12-13T07:21:12;-0.20;76.60
8711;DHT22;4392;47.400;8.062;2022-12-13T07:23:38;-0.30;76.50
8711;DHT22;4392;47.400;8.062;2022-12-13T07:26:05;-0.30;76.30
8711;DHT22;4392;47.400;8.062;2022-12-13T07:28:35;-0.30;76.70
8711;DHT22;4392;47.400;8.062;2022-12-13T07:31:03;-0.40;76.00
8711;DHT22;4392;47.400;8.062;2022-12-13T07:33:29;-0.40;75.70
8711;DHT22;4392;47.400;8.062;2022-12-13T07:36:03;-0.40;76.00
8711;DHT22;4392;47.400;8.062;2022-12-13T07:38:32;-0.40;76.30
8711;DHT22;4392;47.400;8.062;2022-12-13T07:40:58;-0.40;76.50
8711;DHT22;4392;47.400;8.062;2022-12-13T07:43:24;-0.40;75.90
8711;DHT22;4392;47.400;8.062;2022-12-13T07:45:51;-0.40;75.80
8711;DHT22;4392;47.400;8.062;2022-12-13T07:48:17;-0.40;76.00
8711;DHT22;4392;47.400;8.062;2022-12-13T07:50:44;-0.40;76.70
8711;DHT22;4392;47.400;8.062;2022-12-13T07:53:12;-0.40;77.20
8711;DHT22;4392;47.400;8.062;2022-12-13T07:55:38;-0.30;77.30
8711;DHT22;4392;47.400;8.062;2022-12-13T07:58:09;-0.30;77.60
8711;DHT22;4392;47.400;8.062;2022-12-13T08:00:36;-0.20;77.40
8711;DHT22;4392;47.400;8.062;2022-12-13T08:03:05;-0.20;77.00
8711;DHT22;4392;47.400;8.062;2022-12-13T08:05:31;-0.10;77.50
8711;DHT22;4392;47.400;8.062;2022-12-13T08:07:59;-0.20;77.30
8711;DHT22;4392;47.400;8.062;2022-12-13T08:10:26;-0.10;77.90
8711;DHT22;4392;47.400;8.062;2022-12-13T08:12:52;-0.10;77.80
8711;DHT22;4392;47.400;8.062;2022-12-13T08:15:18;-0.10;77.60
8711;DHT22;4392;47.400;8.062;2022-12-13T08:17:44;0.00;77.80
8711;DHT22;4392;47.400;8.062;2022-12-13T08:20:10;0.00;77.50
8711;DHT22;4392;47.400;8.062;2022-12-13T08:22:36;0.00;77.40
8711;DHT22;4392;47.400;8.062;2022-12-13T08:25:02;0.00;76.30
8711;DHT22;4392;47.400;8.062;2022-12-13T08:27:28;-0.10;76.40
8711;DHT22;4392;47.400;8.062;2022-12-13T08:29:57;-0.10;76.30
8711;DHT22;4392;47.400;8.062;2022-12-13T08:32:23;-0.10;76.40
8711;DHT22;4392;47.400;8.062;2022-12-13T08:34:49;-0.10;76.00
8711;DHT22;4392;47.400;8.062;2022-12-13T08:37:33;0.00;76.40
8711;DHT22;4392;47.400;8.062;2022-12-13T08:39:58;0.00;76.10
8711;DHT22;4392;47.400;8.062;2022-12-13T08:42:24;0.00;76.10
8711;DHT22;4392;47.400;8.062;2022-12-13T08:44:55;0.00;76.20
8711;DHT22;4392;47.400;8.062;2022-12-13T08:47:23;0.10;76.60
8711;DHT22;4392;47.400;8.062;2022-12-13T08:49:49;0.10;76.00
8711;DHT22;4392;47.400;8.062;2022-12-13T08:52:15;0.10;76.10
8711;DHT22;4392;47.400;8.062;2022-12-13T08:54:41;0.10;76.00
8711;DHT22;4392;47.400;8.062;2022-12-13T08:57:08;0.10;76.00
8711;DHT22;4392;47.400;8.062;2022-12-13T08:59:34;0.10;76.20
8711;DHT22;4392;47.400;8.062;2022-12-13T09:02:00;0.20;76.40
8711;DHT22;4392;47.400;8.062;2022-12-13T09:04:26;0.30;76.70
8711;DHT22;4392;47.400;8.062;2022-12-13T09:06:54;0.30;76.70
8711;DHT22;4392;47.400;8.062;2022-12-13T09:09:20;0.30;76.60
8711;DHT22;4392;47.400;8.062;2022-12-13T09:11:45;0.30;76.20
8711;DHT22;4392;47.400;8.062;2022-12-13T09:14:11;0.30;75.60
8711;DHT22;4392;47.400;8.062;2022-12-13T09:16:37;0.30;75.60
8711;DHT22;4392;47.400;8.062;2022-12-13T09:19:08;0.30;75.30
8711;DHT22;4392;47.400;8.062;2022-12-13T09:21:34;0.30;75.30
8711;DHT22;4392;47.400;8.062;2022-12-13T09:24:00;0.30;75.10
8711;DHT22;4392;47.400;8.062;2022-12-13T09:26:26;0.30;74.80
8711;DHT22;4392;47.400;8.062;2022-12-13T09:28:55;0.40;75.10
8711;DHT22;4392;47.400;8.062;2022-12-13T09:31:21;0.40;75.20
8711;DHT22;4392;47.400;8.062;2022-12-13T09:33:47;0.40;75.10
8711;DHT22;4392;47.400;8.062;2022-12-13T09:36:17;0.40;74.40
8711;DHT22;4392;47.400;8.062;2022-12-13T09:38:43;0.50;74.40
8711;DHT22;4392;47.400;8.062;2022-12-13T09:41:22;0.40;74.00
8711;DHT22;4392;47.400;8.062;2022-12-13T09:44:03;0.50;74.10
8711;DHT22;4392;47.400;8.062;2022-12-13T09:46:36;0.40;73.30
8711;DHT22;4392;47.400;8.062;2022-12-13T09:49:09;0.40;73.30
8711;DHT22;4392;47.400;8.062;2022-12-13T09:51:36;0.40;73.50
8711;DHT22;4392;47.400;8.062;2022-12-13T09:54:03;0.40;73.80
8711;DHT22;4392;47.400;8.062;2022-12-13T09:56:29;0.40;73.90
8711;DHT22;4392;47.400;8.062;2022-12-13T09:58:55;0.50;73.70
8711;DHT22;4392;47.400;8.062;2022-12-13T10:01:22;0.50;74.10
8711;DHT22;4392;47.400;8.062;2022-12-13T10:03:50;0.50;73.50
8711;DHT22;4392;47.400;8.062;2022-12-13T10:06:19;0.40;73.60
8711;DHT22;4392;47.400;8.062;2022-12-13T10:08:48;0.50;74.20
8711;DHT22;4392;47.400;8.062;2022-12-13T10:11:16;0.50;74.40
8711;DHT22;4392;47.400;8.062;2022-12-13T10:13:51;0.60;74.10
8711;DHT22;4392;47.400;8.062;2022-12-13T10:16:49;0.60;74.00
8711;DHT22;4392;47.400;8.062;2022-12-13T10:19:38;0.60;74.00
8711;DHT22;4392;47.400;8.062;2022-12-13T10:22:10;0.60;73.70
8711;DHT22;4392;47.400;8.062;2022-12-13T10:24:59;0.50;74.00
8711;DHT22;4392;47.400;8.062;2022-12-13T10:27:33;0.60;74.40
8711;DHT22;4392;47.400;8.062;2022-12-13T10:32:30;0.60;75.00
8711;DHT22;4392;47.400;8.062;2022-12-13T10:35:32;0.60;75.00
8711;DHT22;4392;47.400;8.062;2022-12-13T10:38:24;0.60;75.50
8711;DHT22;4392;47.400;8.062;2022-12-13T10:40:51;0.70;75.20
8711;DHT22;4392;47.400;8.062;2022-12-13T10:43:19;0.70;74.90
8711;DHT22;4392;47.400;8.062;2022-12-13T10:46:00;0.70;75.00
8711;DHT22;4392;47.400;8.062;2022-12-13T10:53:34;0.70;75.10
8711;DHT22;4392;47.400;8.062;2022-12-13T10:56:02;0.70;74.60
8711;DHT22;4392;47.400;8.062;2022-12-13T10:58:40;0.70;74.30
8711;DHT22;4392;47.400;8.062;2022-12-13T11:01:21;0.70;74.20
8711;DHT22;4392;47.400;8.062;2022-12-13T11:04:00;0.70;74.80
8711;DHT22;4392;47.400;8.062;2022-12-13T11:06:41;0.70;75.10
8711;DHT22;4392;47.400;8.062;2022-12-13T11:09:25;0.70;75.20
8711;DHT22;4392;47.400;8.062;2022-12-13T11:11:52;0.80;75.40
8711;DHT22;4392;47.400;8.062;2022-12-13T11:14:20;0.80;75.30
8711;DHT22;4392;47.400;8.062;2022-12-13T11:17:04;0.80;75.20
8711;DHT22;4392;47.400;8.062;2022-12-13T11:19:44;0.90;75.20
8711;DHT22;4392;47.400;8.062;2022-12-13T11:22:22;0.90;75.10
8711;DHT22;4392;47.400;8.062;2022-12-13T11:25:07;0.90;74.60
8711;DHT22;4392;47.400;8.062;2022-12-13T11:39:29;0.90;74.80
8711;DHT22;4392;47.400;8.062;2022-12-13T11:42:09;0.80;74.30
8711;DHT22;4392;47.400;8.062;2022-12-13T11:47:30;0.90;74.90
8711;DHT22;4392;47.400;8.062;2022-12-13T11:49:58;0.90;75.40
8711;DHT22;4392;47.400;8.062;2022-12-13T11:52:28;1.00;74.70
8711;DHT22;4392;47.400;8.062;2022-12-13T11:55:34;1.00;74.80
8711;DHT22;4392;47.400;8.062;2022-12-13T11:58:11;1.00;75.00
8711;DHT22;4392;47.400;8.062;2022-12-13T12:00:44;1.10;75.00
8711;DHT22;4392;47.400;8.062;2022-12-13T12:03:21;1.10;74.60
8711;DHT22;4392;47.400;8.062;2022-12-13T12:06:21;1.10;74.50
8711;DHT22;4392;47.400;8.062;2022-12-13T12:14:00;1.20;75.00
8711;DHT22;4392;47.400;8.062;2022-12-13T12:19:19;1.20;74.80
8711;DHT22;4392;47.400;8.062;2022-12-13T12:24:40;1.10;74.60
8711;DHT22;4392;47.400;8.062;2022-12-13T12:33:14;1.20;75.50
8711;DHT22;4392;47.400;8.062;2022-12-13T12:43:50;1.30;75.90
8711;DHT22;4392;47.400;8.062;2022-12-13T12:46:42;1.30;75.60
8711;DHT22;4392;47.400;8.062;2022-12-13T12:52:03;1.30;75.70
8711;DHT22;4392;47.400;8.062;2022-12-13T13:00:20;1.40;76.60
8711;DHT22;4392;47.400;8.062;2022-12-13T13:08:35;1.40;76.70
8711;DHT22;4392;47.400;8.062;2022-12-13T13:11:04;1.40;76.80
8711;DHT22;4392;47.400;8.062;2022-12-13T13:18:56;1.40;77.70
8711;DHT22;4392;47.400;8.062;2022-12-13T13:29:24;1.10;79.40
8711;DHT22;4392;47.400;8.062;2022-12-13T13:34:44;0.90;80.80
8711;DHT22;4392;47.400;8.062;2022-12-13T13:45:52;1.30;79.20
8711;DHT22;4392;47.400;8.062;2022-12-13T13:57:19;1.50;78.60
8711;DHT22;4392;47.400;8.062;2022-12-13T14:02:57;1.40;77.90
8711;DHT22;4392;47.400;8.062;2022-12-13T14:11:56;1.40;77.70
8711;DHT22;4392;47.400;8.062;2022-12-13T14:21:04;1.60;78.10
8711;DHT22;4392;47.400;8.062;2022-12-13T14:31:23;1.60;78.80
8711;DHT22;4392;47.400;8.062;2022-12-13T14:33:56;1.50;79.40
8711;DHT22;4392;47.400;8.062;2022-12-13T14:36:30;1.60;78.80
8711;DHT22;4392;47.400;8.062;2022-12-13T14:39:04;1.60;78.50
8711;DHT22;4392;47.400;8.062;2022-12-13T14:41:31;1.60;78.30
8711;DHT22;4392;47.400;8.062;2022-12-13T14:44:24;1.60;79.60
8711;DHT22;4392;47.400;8.062;2022-12-13T14:46:52;1.70;79.10
8711;DHT22;4392;47.400;8.062;2022-12-13T14:49:18;1.60;78.80
8711;DHT22;4392;47.400;8.062;2022-12-13T14:51:46;1.70;78.20
8711;DHT22;4392;47.400;8.062;2022-12-13T14:54:20;1.60;78.60
8711;DHT22;4392;47.400;8.062;2022-12-13T14:57:00;1.50;78.90
8711;DHT22;4392;47.400;8.062;2022-12-13T14:59:28;1.50;79.20
8711;DHT22;4392;47.400;8.062;2022-12-13T15:02:15;1.40;79.50
8711;DHT22;4392;47.400;8.062;2022-12-13T15:04:41;1.40;79.60
8711;DHT22;4392;47.400;8.062;2022-12-13T15:07:25;1.40;79.80
8711;DHT22;4392;47.400;8.062;2022-12-13T15:12:41;3.50;97.80
8711;DHT22;4392;47.400;8.062;2022-12-13T15:15:37;2.80;91.00
8711;DHT22;4392;47.400;8.062;2022-12-13T15:20:45;2.10;89.40
8711;DHT22;4392;47.400;8.062;2022-12-13T15:23:34;3.30;99.90
8711;DHT22;4392;47.400;8.062;2022-12-13T15:26:15;5.10;99.90
8711;DHT22;4392;47.400;8.062;2022-12-13T15:28:44;5.50;99.90
8711;DHT22;4392;47.400;8.062;2022-12-13T15:31:12;4.00;83.50
8711;DHT22;4392;47.400;8.062;2022-12-13T15:33:52;3.30;83.10
8711;DHT22;4392;47.400;8.062;2022-12-13T15:36:25;2.90;84.20
8711;DHT22;4392;47.400;8.062;2022-12-13T15:39:01;2.60;84.20
8711;DHT22;4392;47.400;8.062;2022-12-13T15:41:34;2.40;84.80
8711;DHT22;4392;47.400;8.062;2022-12-13T15:46:44;3.90;99.90
8711;DHT22;4392;47.400;8.062;2022-12-13T15:52:03;3.00;92.10
8711;DHT22;4392;47.400;8.062;2022-12-13T15:54:34;2.90;89.40
8711;DHT22;4392;47.400;8.062;2022-12-13T15:57:13;2.50;89.10
8711;DHT22;4392;47.400;8.062;2022-12-13T15:59:41;2.30;88.30
8711;DHT22;4392;47.400;8.062;2022-12-13T16:02:25;2.20;89.00
8711;DHT22;4392;47.400;8.062;2022-12-13T16:04:53;2.10;88.80
8711;DHT22;4392;47.400;8.062;2022-12-13T16:07:26;2.00;89.40
8711;DHT22;4392;47.400;8.062;2022-12-13T16:09:53;2.00;89.80
8711;DHT22;4392;47.400;8.062;2022-12-13T16:12:23;4.20;99.90
8711;DHT22;4392;47.400;8.062;2022-12-13T16:14:50;3.40;90.30
8711;DHT22;4392;47.400;8.062;2022-12-13T16:17:25;3.00;90.10
8711;DHT22;4392;47.400;8.062;2022-12-13T16:19:52;2.60;90.40
8711;DHT22;4392;47.400;8.062;2022-12-13T16:22:18;2.30;90.70
8711;DHT22;4392;47.400;8.062;2022-12-13T16:24:47;2.20;91.00
8711;DHT22;4392;47.400;8.062;2022-12-13T16:27:13;2.30;91.10
8711;DHT22;4392;47.400;8.062;2022-12-13T16:29:39;2.10;90.90
8711;DHT22;4392;47.400;8.062;2022-12-13T16:32:05;1.90;91.20
8711;DHT22;4392;47.400;8.062;2022-12-13T16:34:31;1.80;91.60
8711;DHT22;4392;47.400;8.062;2022-12-13T16:36:57;1.90;92.00
8711;DHT22;4392;47.400;8.062;2022-12-13T16:39:24;1.90;92.00
8711;DHT22;4392;47.400;8.062;2022-12-13T16:41:51;2.00;92.30
8711;DHT22;4392;47.400;8.062;2022-12-13T16:44:34;3.80;99.90
8711;DHT22;4392;47.400;8.062;2022-12-13T16:47:00;2.90;92.80
8711;DHT22;4392;47.400;8.062;2022-12-13T16:49:28;2.40;92.90
8711;DHT22;4392;47.400;8.062;2022-12-13T16:51:55;2.20;93.20
8711;DHT22;4392;47.400;8.062;2022-12-13T16:54:23;2.00;93.40
8711;DHT22;4392;47.400;8.062;2022-12-13T16:56:49;1.90;93.50
8711;DHT22;4392;47.400;8.062;2022-12-13T16:59:20;1.80;93.50
8711;DHT22;4392;47.400;8.062;2022-12-13T17:01:47;1.70;93.40
8711;DHT22;4392;47.400;8.062;2022-12-13T17:04:19;1.60;93.50
8711;DHT22;4392;47.400;8.062;2022-12-13T17:06:50;1.60;93.80
8711;DHT22;4392;47.400;8.062;2022-12-13T17:09:17;1.70;94.10
8711;DHT22;4392;47.400;8.062;2022-12-13T17:11:44;1.90;95.20
8711;DHT22;4392;47.400;8.062;2022-12-13T17:14:10;1.80;93.70
8711;DHT22;4392;47.400;8.062;2022-12-13T17:16:36;1.70;93.60
8711;DHT22;4392;47.400;8.062;2022-12-13T17:19:01;1.80;93.80
8711;DHT22;4392;47.400;8.062;2022-12-13T17:21:28;1.80;93.50
8711;DHT22;4392;47.400;8.062;2022-12-13T17:23:58;1.80;93.30
8711;DHT22;4392;47.400;8.062;2022-12-13T17:26:25;1.60;93.10
8711;DHT22;4392;47.400;8.062;2022-12-13T17:28:54;1.50;93.10
8711;DHT22;4392;47.400;8.062;2022-12-13T17:31:21;1.50;93.20
8711;DHT22;4392;47.400;8.062;2022-12-13T17:33:53;1.40;93.10
8711;DHT22;4392;47.400;8.062;2022-12-13T17:36:30;1.30;93.20
8711;DHT22;4392;47.400;8.062;2022-12-13T17:39:08;1.30;93.40
8711;DHT22;4392;47.400;8.062;2022-12-13T17:41:37;1.30;93.60
8711;DHT22;4392;47.400;8.062;2022-12-13T17:44:06;1.40;93.80
8711;DHT22;4392;47.400;8.062;2022-12-13T17:46:33;1.40;94.00
8711;DHT22;4392;47.400;8.062;2022-12-13T17:49:04;1.40;94.10
8711;DHT22;4392;47.400;8.062;2022-12-13T17:51:30;1.40;94.00
8711;DHT22;4392;47.400;8.062;2022-12-13T17:53:56;1.50;94.20
8711;DHT22;4392;47.400;8.062;2022-12-13T17:56:24;1.50;94.40
8711;DHT22;4392;47.400;8.062;2022-12-13T17:58:50;1.50;94.50
8711;DHT22;4392;47.400;8.062;2022-12-13T18:01:22;1.40;94.50
8711;DHT22;4392;47.400;8.062;2022-12-13T18:03:51;3.30;99.90
8711;DHT22;4392;47.400;8.062;2022-12-13T18:06:23;2.90;96.60
8711;DHT22;4392;47.400;8.062;2022-12-13T18:08:49;2.30;94.80
8711;DHT22;4392;47.400;8.062;2022-12-13T18:11:18;2.00;94.80
8711;DHT22;4392;47.400;8.062;2022-12-13T18:13:44;1.90;95.00
8711;DHT22;4392;47.400;8.062;2022-12-13T18:16:15;1.90;95.10
8711;DHT22;4392;47.400;8.062;2022-12-13T18:18:42;1.90;94.90
8711;DHT22;4392;47.400;8.062;2022-12-13T18:21:14;1.80;94.90
8711;DHT22;4392;47.400;8.062;2022-12-13T18:23:41;1.90;94.80
8711;DHT22;4392;47.400;8.062;2022-12-13T18:26:12;2.00;94.80
8711;DHT22;4392;47.400;8.062;2022-12-13T18:28:39;2.00;95.70
8711;DHT22;4392;47.400;8.062;2022-12-13T18:31:07;2.00;98.90
8711;DHT22;4392;47.400;8.062;2022-12-13T18:33:35;2.20;96.90
8711;DHT22;4392;47.400;8.062;2022-12-13T18:36:06;2.40;99.90
8711;DHT22;4392;47.400;8.062;2022-12-13T18:38:33;4.60;99.90
8711;DHT22;4392;47.400;8.062;2022-12-13T18:41:12;3.60;93.80
8711;DHT22;4392;47.400;8.062;2022-12-13T18:43:43;2.70;93.90
8711;DHT22;4392;47.400;8.062;2022-12-13T18:46:10;2.30;94.50
8711;DHT22;4392;47.400;8.062;2022-12-13T18:48:37;2.00;94.50
8711;DHT22;4392;47.400;8.062;2022-12-13T18:51:05;1.80;94.80
8711;DHT22;4392;47.400;8.062;2022-12-13T18:53:32;1.70;95.00
8711;DHT22;4392;47.400;8.062;2022-12-13T18:56:03;1.60;95.10
8711;DHT22;4392;47.400;8.062;2022-12-13T18:58:32;1.50;94.90
8711;DHT22;4392;47.400;8.062;2022-12-13T19:00:58;1.50;95.10
8711;DHT22;4392;47.400;8.062;2022-12-13T19:03:25;2.20;99.90
8711;DHT22;4392;47.400;8.062;2022-12-13T19:05:52;2.80;99.40
8711;DHT22;4392;47.400;8.062;2022-12-13T19:08:20;2.20;95.80
8711;DHT22;4392;47.400;8.062;2022-12-13T19:10:52;1.90;95.60
8711;DHT22;4392;47.400;8.062;2022-12-13T19:13:18;1.70;95.60